createdAt,value
2022-10-08T00:01:21.335Z,13.08
2022-10-08T00:03:51.427Z,13.10
2022-10-08T00:06:25.574Z,13.11
2022-10-08T00:08:58.564Z,13.09
2022-10-08T00:11:34.108Z,13.09
2022-10-08T00:14:04.872Z,13.08
2022-10-08T00:16:34.064Z,13.07
2022-10-08T00:19:06.698Z,13.04
2022-10-08T00:21:36.215Z,13.04
2022-10-08T00:24:04.849Z,13.01
2022-10-08T00:26:44.261Z,13.02
2022-10-08T00:29:14.594Z,13.00
2022-10-08T00:31:45.556Z,12.99
2022-10-08T00:34:19.824Z,12.99
2022-10-08T00:36:50.054Z,13.01
2022-10-08T00:39:19.478Z,13.02
2022-10-08T00:41:49.687Z,13.03
2022-10-08T00:44:44.070Z,13.02
2022-10-08T00:47:22.851Z,13.00
2022-10-08T00:49:53.551Z,12.99
2022-10-08T00:52:25.512Z,12.99
2022-10-08T00:54:57.032Z,12.99
2022-10-08T00:57:23.947Z,13.02
2022-10-08T00:59:50.580Z,13.03
2022-10-08T01:02:19.399Z,13.07
2022-10-08T01:04:48.962Z,13.10
2022-10-08T01:07:33.142Z,13.12
2022-10-08T01:10:22.381Z,13.15
2022-10-08T01:12:58.394Z,13.18
2022-10-08T01:15:48.037Z,13.17
2022-10-08T01:18:26.832Z,13.20
2022-10-08T01:21:12.210Z,13.21
2022-10-08T01:23:47.583Z,13.20
2022-10-08T01:26:47.132Z,13.18
2022-10-08T01:29:16.487Z,13.18
2022-10-08T01:32:14.094Z,13.17
2022-10-08T01:34:46.955Z,13.15
2022-10-08T01:37:21.661Z,13.15
2022-10-08T01:39:51.208Z,13.14
2022-10-08T01:42:23.338Z,13.13
2022-10-08T01:44:58.710Z,13.10
2022-10-08T01:47:29.033Z,13.12
2022-10-08T01:50:04.081Z,13.12
2022-10-08T01:52:37.147Z,13.13
2022-10-08T01:55:11.542Z,13.14
2022-10-08T01:57:40.029Z,13.13
2022-10-08T02:00:10.663Z,13.15
2022-10-08T02:02:37.389Z,13.14
2022-10-08T02:05:06.134Z,13.12
2022-10-08T02:07:38.406Z,13.10
2022-10-08T02:10:08.162Z,13.09
2022-10-08T02:12:35.347Z,13.08
2022-10-08T02:15:04.662Z,13.07
2022-10-08T02:18:07.968Z,13.07
2022-10-08T02:20:47.672Z,13.07
2022-10-08T02:23:17.199Z,13.07
2022-10-08T02:25:52.376Z,13.03
2022-10-08T02:28:28.263Z,13.03
2022-10-08T02:31:24.725Z,13.04
2022-10-08T02:34:07.652Z,13.06
2022-10-08T02:36:41.334Z,13.07
2022-10-08T02:39:10.309Z,13.07
2022-10-08T02:41:43.234Z,13.10
2022-10-08T02:44:17.290Z,13.12
2022-10-08T02:46:49.205Z,13.11
2022-10-08T02:49:24.219Z,13.10
2022-10-08T02:51:53.494Z,13.11
2022-10-08T02:54:22.954Z,13.08
2022-10-08T02:56:52.544Z,13.06
2022-10-08T02:59:21.119Z,13.05
2022-10-08T03:01:57.662Z,13.03
2022-10-08T03:04:33.161Z,13.00
2022-10-08T03:07:00.627Z,12.90
2022-10-08T03:09:34.499Z,12.81
2022-10-08T03:12:01.429Z,12.77
2022-10-08T03:14:29.151Z,12.70
2022-10-08T03:16:55.950Z,12.67
2022-10-08T03:19:22.983Z,12.64
2022-10-08T03:21:53.587Z,12.64
2022-10-08T03:24:20.573Z,12.63
2022-10-08T03:26:47.278Z,12.62
2022-10-08T03:29:14.035Z,12.61
2022-10-08T03:31:40.670Z,12.59
2022-10-08T03:34:07.309Z,12.56
2022-10-08T03:36:33.941Z,12.55
2022-10-08T03:39:00.623Z,12.51
2022-10-08T03:41:27.561Z,12.47
2022-10-08T03:43:54.327Z,12.45
2022-10-08T03:46:21.083Z,12.44
2022-10-08T03:48:49.913Z,12.43
2022-10-08T03:51:17.426Z,12.43
2022-10-08T03:53:44.627Z,12.41
2022-10-08T03:56:16.944Z,12.42
2022-10-08T03:58:44.029Z,12.40
2022-10-08T04:01:16.229Z,12.38
2022-10-08T04:03:44.319Z,12.37
2022-10-08T04:06:12.011Z,12.38
2022-10-08T04:08:38.791Z,12.36
2022-10-08T04:11:07.313Z,12.36
2022-10-08T04:13:35.668Z,12.31
2022-10-08T04:16:13.963Z,12.30
2022-10-08T04:18:41.282Z,12.29
2022-10-08T04:21:10.614Z,12.29
2022-10-08T04:23:39.559Z,12.25
2022-10-08T04:26:07.145Z,12.24
2022-10-08T04:28:38.663Z,12.23
2022-10-08T04:31:12.470Z,12.23
2022-10-08T04:33:39.590Z,12.21
2022-10-08T04:36:25.360Z,12.19
2022-10-08T04:38:52.364Z,12.18
2022-10-08T04:41:24.659Z,12.17
2022-10-08T04:43:52.010Z,12.15
2022-10-08T04:46:20.415Z,12.13
2022-10-08T04:48:49.026Z,12.10
2022-10-08T04:51:16.335Z,12.12
2022-10-08T04:53:43.414Z,12.11
2022-10-08T04:56:15.516Z,12.08
2022-10-08T04:58:42.315Z,12.03
2022-10-08T05:01:13.122Z,12.00
2022-10-08T05:03:48.228Z,12.00
2022-10-08T05:06:16.909Z,12.00
2022-10-08T05:08:44.730Z,11.97
2022-10-08T05:11:11.705Z,11.97
2022-10-08T05:13:39.129Z,11.98
2022-10-08T05:16:08.075Z,12.00
2022-10-08T05:18:35.829Z,12.00
2022-10-08T05:21:04.806Z,11.99
2022-10-08T05:23:31.935Z,11.98
2022-10-08T05:25:58.653Z,11.96
2022-10-08T05:28:25.360Z,11.99
2022-10-08T05:30:52.017Z,11.99
2022-10-08T05:33:18.710Z,12.01
2022-10-08T05:35:45.302Z,12.01
2022-10-08T05:38:11.919Z,11.98
2022-10-08T05:40:38.551Z,11.97
2022-10-08T05:43:05.170Z,11.97
2022-10-08T05:45:31.796Z,11.96
2022-10-08T05:47:58.492Z,11.96
2022-10-08T05:50:25.338Z,11.96
2022-10-08T05:52:51.997Z,11.95
2022-10-08T05:55:19.909Z,11.94
2022-10-08T05:57:46.518Z,11.95
2022-10-08T06:00:14.099Z,11.94
2022-10-08T06:02:40.785Z,11.92
2022-10-08T06:05:07.869Z,11.93
2022-10-08T06:07:34.517Z,11.94
2022-10-08T06:10:01.170Z,11.96
2022-10-08T06:12:27.764Z,11.97
2022-10-08T06:14:57.505Z,11.98
2022-10-08T06:17:24.140Z,12.00
2022-10-08T06:19:53.063Z,12.02
2022-10-08T06:22:19.655Z,12.03
2022-10-08T06:24:48.571Z,12.02
2022-10-08T06:27:15.194Z,12.01
2022-10-08T06:29:43.218Z,12.01
2022-10-08T06:32:13.785Z,12.00
2022-10-08T06:34:42.155Z,12.00
2022-10-08T06:37:08.741Z,12.02
2022-10-08T06:39:35.343Z,12.02
2022-10-08T06:42:01.956Z,12.04
2022-10-08T06:44:28.601Z,12.04
2022-10-08T06:46:55.256Z,12.06
2022-10-08T06:49:26.629Z,12.06
2022-10-08T06:51:53.228Z,12.07
2022-10-08T06:54:19.975Z,12.08
2022-10-08T06:56:49.473Z,12.08
2022-10-08T06:59:16.083Z,12.13
2022-10-08T07:01:42.798Z,12.14
2022-10-08T07:04:16.044Z,12.14
2022-10-08T07:06:42.647Z,12.14
2022-10-08T07:09:13.487Z,12.14
2022-10-08T07:11:40.431Z,12.19
2022-10-08T07:14:07.115Z,12.19
2022-10-08T07:16:33.954Z,12.18
2022-10-08T07:19:00.815Z,12.16
2022-10-08T07:21:29.308Z,12.14
2022-10-08T07:23:58.190Z,12.11
2022-10-08T07:26:26.837Z,12.11
2022-10-08T07:28:59.667Z,12.13
2022-10-08T07:31:35.606Z,12.17
2022-10-08T07:34:06.730Z,12.20
2022-10-08T07:36:33.916Z,12.25
2022-10-08T07:39:03.524Z,12.30
2022-10-08T07:41:30.527Z,12.35
2022-10-08T07:43:59.773Z,12.37
2022-10-08T07:46:28.232Z,12.40
2022-10-08T07:48:56.851Z,12.38
2022-10-08T07:51:23.533Z,12.37
2022-10-08T07:53:50.211Z,12.37
2022-10-08T07:56:18.523Z,12.37
2022-10-08T07:58:45.775Z,12.29
2022-10-08T08:01:15.548Z,12.25
2022-10-08T08:03:43.331Z,12.21
2022-10-08T08:06:15.850Z,12.20
2022-10-08T08:08:44.942Z,12.19
2022-10-08T08:11:14.652Z,12.18
2022-10-08T08:13:42.238Z,12.19
2022-10-08T08:16:21.403Z,12.19
2022-10-08T08:18:50.474Z,12.15
2022-10-08T08:21:20.384Z,12.14
2022-10-08T08:23:49.357Z,12.12
2022-10-08T08:26:30.544Z,12.15
2022-10-08T08:28:59.811Z,12.20
2022-10-08T08:31:37.767Z,12.25
2022-10-08T08:34:07.397Z,12.29
2022-10-08T08:36:39.674Z,12.31
2022-10-08T08:39:08.429Z,12.32
2022-10-08T08:42:12.257Z,12.34
2022-10-08T08:44:41.930Z,12.37
2022-10-08T08:47:14.686Z,12.39
2022-10-08T08:49:43.311Z,12.44
2022-10-08T08:52:13.617Z,12.51
2022-10-08T08:54:40.718Z,12.57
2022-10-08T08:57:36.317Z,12.59
2022-10-08T09:00:13.287Z,12.57
2022-10-08T09:02:52.252Z,12.58
2022-10-08T09:05:20.349Z,12.52
2022-10-08T09:07:51.499Z,12.48
2022-10-08T09:10:29.804Z,12.46
2022-10-08T09:12:58.121Z,12.47
2022-10-08T09:15:32.762Z,12.49
2022-10-08T09:18:02.182Z,12.51
2022-10-08T09:20:29.281Z,12.51
2022-10-08T09:22:57.640Z,12.51
2022-10-08T09:25:28.338Z,12.56
2022-10-08T09:27:57.886Z,12.64
2022-10-08T09:30:24.538Z,12.76
2022-10-08T09:33:19.581Z,12.85
2022-10-08T09:35:49.110Z,12.91
2022-10-08T09:38:24.947Z,12.98
2022-10-08T09:41:19.599Z,13.06
2022-10-08T09:44:25.089Z,13.11
2022-10-08T09:47:05.365Z,13.13
2022-10-08T09:49:35.015Z,13.14
2022-10-08T09:52:20.513Z,13.14
2022-10-08T09:54:56.435Z,13.16
2022-10-08T09:57:23.378Z,13.16
2022-10-08T10:00:05.664Z,13.24
2022-10-08T10:02:37.176Z,13.34
2022-10-08T10:05:06.692Z,13.44
2022-10-08T10:07:44.687Z,13.49
2022-10-08T10:10:36.339Z,13.58
2022-10-08T10:13:11.144Z,13.59
2022-10-08T10:15:46.743Z,13.62
2022-10-08T10:18:20.929Z,13.69
2022-10-08T10:20:58.761Z,13.75
2022-10-08T10:23:37.935Z,13.82
2022-10-08T10:26:16.854Z,13.87
2022-10-08T10:28:48.408Z,13.97
2022-10-08T10:31:33.310Z,14.04
2022-10-08T10:34:08.998Z,14.09
2022-10-08T10:36:43.201Z,14.10
2022-10-08T10:39:40.982Z,14.23
2022-10-08T10:42:20.160Z,14.31
2022-10-08T10:44:58.798Z,14.40
2022-10-08T10:47:32.228Z,14.48
2022-10-08T10:50:01.897Z,14.52
2022-10-08T10:52:34.842Z,14.52
2022-10-08T10:55:13.440Z,14.53
2022-10-08T10:57:48.883Z,14.54
2022-10-08T11:00:30.285Z,14.52
2022-10-08T11:03:17.197Z,14.53
2022-10-08T11:05:47.357Z,14.61
2022-10-08T11:08:32.382Z,14.63
2022-10-08T11:11:22.766Z,14.60
2022-10-08T11:14:19.218Z,14.60
2022-10-08T11:16:57.778Z,14.68
2022-10-08T11:19:24.453Z,14.76
2022-10-08T11:22:11.081Z,14.85
2022-10-08T11:24:49.528Z,14.90
2022-10-08T11:27:24.930Z,14.95
2022-10-08T11:29:55.370Z,15.03
2022-10-08T11:32:22.762Z,15.06
2022-10-08T11:35:20.726Z,15.16
2022-10-08T11:38:23.558Z,15.19
2022-10-08T11:41:01.547Z,15.08
2022-10-08T11:43:32.931Z,15.05
2022-10-08T11:46:29.041Z,15.07
2022-10-08T11:49:08.866Z,15.07
2022-10-08T11:51:38.055Z,15.05
2022-10-08T11:54:16.279Z,15.01
2022-10-08T11:56:54.384Z,14.98
2022-10-08T11:59:46.347Z,14.95
2022-10-08T12:02:26.675Z,14.91
2022-10-08T12:04:55.859Z,14.89
2022-10-08T12:07:39.598Z,14.90
2022-10-08T12:10:06.154Z,14.89
2022-10-08T12:12:51.083Z,14.88
2022-10-08T12:15:23.600Z,14.85
2022-10-08T12:18:26.226Z,14.82
2022-10-08T12:21:17.907Z,14.81
2022-10-08T12:23:45.134Z,14.80
2022-10-08T12:26:13.939Z,14.77
2022-10-08T12:28:43.292Z,14.74
2022-10-08T12:31:17.732Z,14.75
2022-10-08T12:33:55.134Z,14.73
2022-10-08T12:36:42.026Z,14.71
2022-10-08T12:39:56.855Z,14.67
2022-10-08T12:42:30.971Z,14.61
2022-10-08T12:45:07.430Z,14.55
2022-10-08T12:47:58.618Z,14.50
2022-10-08T12:51:16.321Z,14.48
2022-10-08T12:53:45.546Z,14.46
2022-10-08T12:56:31.572Z,14.42
2022-10-08T12:59:03.108Z,14.40
2022-10-08T13:01:30.192Z,14.36
2022-10-08T13:04:13.014Z,14.36
2022-10-08T13:06:39.681Z,14.34
2022-10-08T13:09:29.269Z,14.31
2022-10-08T13:12:02.899Z,14.33
2022-10-08T13:14:33.049Z,14.31
2022-10-08T13:17:00.342Z,14.31
2022-10-08T13:19:31.753Z,14.34
2022-10-08T13:22:06.210Z,14.32
2022-10-08T13:24:38.753Z,14.35
2022-10-08T13:27:06.804Z,14.35
2022-10-08T13:29:36.359Z,14.34
2022-10-08T13:32:19.479Z,14.34
2022-10-08T13:34:53.918Z,14.31
2022-10-08T13:37:40.476Z,14.31
2022-10-08T13:40:13.255Z,14.31
2022-10-08T13:42:52.343Z,14.29
2022-10-08T13:45:22.378Z,14.31
2022-10-08T13:47:50.024Z,14.32
2022-10-08T13:50:18.809Z,14.31
2022-10-08T13:52:53.662Z,14.29
2022-10-08T13:55:29.654Z,14.27
2022-10-08T13:58:05.907Z,14.26
2022-10-08T14:00:42.474Z,14.24
2022-10-08T14:03:09.677Z,14.23
2022-10-08T14:05:45.305Z,14.21
2022-10-08T14:08:26.854Z,14.17
2022-10-08T14:10:57.968Z,14.16
2022-10-08T14:13:29.755Z,14.15
2022-10-08T14:16:02.874Z,14.14
2022-10-08T14:18:31.799Z,14.10
2022-10-08T14:20:58.595Z,14.06
2022-10-08T14:23:28.231Z,14.00
2022-10-08T14:25:54.926Z,13.97
2022-10-08T14:28:28.891Z,13.93
2022-10-08T14:30:58.204Z,13.90
2022-10-08T14:33:30.784Z,13.87
2022-10-08T14:35:57.388Z,13.86
2022-10-08T14:38:28.627Z,13.81
2022-10-08T14:40:55.239Z,13.77
2022-10-08T14:43:22.096Z,13.71
2022-10-08T14:45:48.865Z,13.67
2022-10-08T14:48:15.946Z,13.65
2022-10-08T14:50:42.538Z,13.63
2022-10-08T14:53:10.125Z,13.59
2022-10-08T14:55:54.498Z,13.57
2022-10-08T14:58:23.627Z,13.54
2022-10-08T15:00:55.194Z,13.52
2022-10-08T15:03:23.426Z,13.52
2022-10-08T15:05:50.809Z,13.50
2022-10-08T15:08:17.944Z,13.46
2022-10-08T15:10:44.898Z,13.42
2022-10-08T15:13:12.325Z,13.37
2022-10-08T15:15:43.371Z,13.33
2022-10-08T15:18:11.439Z,13.30
2022-10-08T15:20:39.253Z,13.25
2022-10-08T15:23:07.309Z,13.21
2022-10-08T15:25:34.191Z,13.17
2022-10-08T15:28:01.047Z,13.15
2022-10-08T15:30:28.372Z,13.12
2022-10-08T15:32:55.287Z,13.08
2022-10-08T15:35:21.931Z,13.09
2022-10-08T15:37:48.585Z,13.07
2022-10-08T15:40:15.315Z,13.01
2022-10-08T15:42:41.980Z,12.98
2022-10-08T15:45:08.847Z,12.93
2022-10-08T15:47:35.461Z,12.89
2022-10-08T15:50:02.422Z,12.87
2022-10-08T15:52:29.235Z,12.83
2022-10-08T15:54:56.041Z,12.79
2022-10-08T15:57:22.722Z,12.76
2022-10-08T15:59:49.547Z,12.71
2022-10-08T16:02:17.942Z,12.68
2022-10-08T16:04:48.236Z,12.65
2022-10-08T16:07:15.268Z,12.61
2022-10-08T16:09:42.014Z,12.57
2022-10-08T16:12:08.664Z,12.53
2022-10-08T16:14:35.492Z,12.48
2022-10-08T16:17:03.013Z,12.42
2022-10-08T16:19:29.910Z,12.39
2022-10-08T16:21:57.743Z,12.37
2022-10-08T16:24:24.934Z,12.37
2022-10-08T16:26:51.579Z,12.35
2022-10-08T16:29:18.537Z,12.32
2022-10-08T16:31:45.820Z,12.28
2022-10-08T16:34:18.747Z,12.22
2022-10-08T16:36:48.151Z,12.19
2022-10-08T16:39:18.283Z,12.14
2022-10-08T16:41:45.578Z,12.12
2022-10-08T16:44:14.739Z,12.08
2022-10-08T16:46:44.193Z,12.06
2022-10-08T16:49:28.664Z,12.00
2022-10-08T16:51:58.248Z,11.97
2022-10-08T16:54:25.793Z,11.95
2022-10-08T16:56:52.752Z,11.93
2022-10-08T16:59:21.798Z,11.89
2022-10-08T17:01:51.238Z,11.82
2022-10-08T17:04:19.377Z,11.79
2022-10-08T17:06:46.804Z,11.74
2022-10-08T17:09:13.878Z,11.71
2022-10-08T17:11:41.952Z,11.70
2022-10-08T17:14:10.300Z,11.70
2022-10-08T17:16:37.842Z,11.65
2022-10-08T17:19:04.969Z,11.59
2022-10-08T17:21:35.016Z,11.57
2022-10-08T17:24:02.880Z,11.55
2022-10-08T17:26:31.097Z,11.53
2022-10-08T17:29:01.789Z,11.52
2022-10-08T17:31:29.430Z,11.49
2022-10-08T17:33:56.139Z,11.43
2022-10-08T17:36:26.577Z,11.41
2022-10-08T17:38:56.146Z,11.38
2022-10-08T17:41:28.890Z,11.36
2022-10-08T17:43:57.300Z,11.36
2022-10-08T17:46:27.178Z,11.35
2022-10-08T17:48:54.387Z,11.34
2022-10-08T17:51:23.753Z,11.36
2022-10-08T17:53:57.827Z,11.33
2022-10-08T17:56:25.796Z,11.34
2022-10-08T17:58:53.133Z,11.32
2022-10-08T18:01:22.416Z,11.29
2022-10-08T18:04:00.513Z,11.26
2022-10-08T18:06:29.041Z,11.24
2022-10-08T18:08:57.433Z,11.22
2022-10-08T18:11:25.254Z,11.17
2022-10-08T18:13:51.911Z,11.14
2022-10-08T18:16:19.986Z,11.14
2022-10-08T18:18:47.929Z,11.10
2022-10-08T18:21:16.711Z,11.07
2022-10-08T18:23:43.800Z,11.05
2022-10-08T18:26:25.289Z,11.00
2022-10-08T18:28:57.529Z,10.99
2022-10-08T18:31:27.093Z,10.95
2022-10-08T18:33:59.205Z,10.91
2022-10-08T18:36:28.110Z,10.91
2022-10-08T18:38:57.099Z,10.85
2022-10-08T18:41:29.617Z,10.87
2022-10-08T18:43:57.033Z,10.88
2022-10-08T18:46:24.022Z,10.89
2022-10-08T18:48:51.132Z,10.90
2022-10-08T18:51:21.481Z,10.91
2022-10-08T18:53:50.188Z,10.90
2022-10-08T18:56:23.232Z,10.90
2022-10-08T18:58:53.118Z,10.89
2022-10-08T19:01:27.676Z,10.93
2022-10-08T19:03:56.430Z,10.91
2022-10-08T19:06:26.946Z,10.89
2022-10-08T19:08:58.521Z,10.88
2022-10-08T19:11:33.726Z,10.87
2022-10-08T19:14:01.307Z,10.85
2022-10-08T19:16:28.593Z,10.83
2022-10-08T19:19:02.576Z,10.79
2022-10-08T19:21:31.257Z,10.80
2022-10-08T19:23:59.337Z,10.79
2022-10-08T19:26:27.454Z,10.79
2022-10-08T19:28:55.909Z,10.79
2022-10-08T19:31:23.667Z,10.77
2022-10-08T19:33:54.401Z,10.73
2022-10-08T19:36:22.245Z,10.67
2022-10-08T19:38:57.012Z,10.64
2022-10-08T19:41:24.237Z,10.60
2022-10-08T19:43:51.955Z,10.54
2022-10-08T19:46:19.426Z,10.54
2022-10-08T19:48:50.663Z,10.54
2022-10-08T19:51:18.415Z,10.49
2022-10-08T19:53:45.362Z,10.48
2022-10-08T19:56:12.991Z,10.43
2022-10-08T19:58:46.271Z,10.43
2022-10-08T20:01:18.539Z,10.41
2022-10-08T20:03:45.791Z,10.41
2022-10-08T20:06:21.713Z,10.38
2022-10-08T20:08:52.431Z,10.34
2022-10-08T20:11:19.841Z,10.31
2022-10-08T20:13:48.815Z,10.26
2022-10-08T20:16:19.087Z,10.25
2022-10-08T20:18:59.428Z,10.23
2022-10-08T20:21:28.254Z,10.20
2022-10-08T20:23:55.242Z,10.17
2022-10-08T20:26:24.241Z,10.16
2022-10-08T20:28:53.746Z,10.13
2022-10-08T20:31:23.052Z,10.09
2022-10-08T20:33:56.908Z,10.06
2022-10-08T20:36:24.397Z,10.02
2022-10-08T20:38:51.491Z,10.00
2022-10-08T20:41:18.653Z,9.99
2022-10-08T20:43:45.255Z,9.98
2022-10-08T20:46:14.715Z,9.95
2022-10-08T20:48:43.442Z,9.91
2022-10-08T20:51:15.273Z,9.90
2022-10-08T20:54:09.383Z,9.85
2022-10-08T20:56:40.064Z,9.81
2022-10-08T20:59:14.051Z,9.77
2022-10-08T21:01:40.888Z,9.75
2022-10-08T21:04:08.639Z,9.69
2022-10-08T21:06:41.361Z,9.64
2022-10-08T21:09:08.412Z,9.61
2022-10-08T21:11:35.984Z,9.59
2022-10-08T21:14:03.685Z,9.56
2022-10-08T21:16:39.055Z,9.54
2022-10-08T21:19:08.467Z,9.51
2022-10-08T21:21:35.146Z,9.51
2022-10-08T21:24:02.406Z,9.50
2022-10-08T21:26:34.270Z,9.50
2022-10-08T21:29:03.475Z,9.48
2022-10-08T21:31:32.316Z,9.46
2022-10-08T21:33:59.761Z,9.45
2022-10-08T21:36:31.795Z,9.43
2022-10-08T21:38:59.834Z,9.43
2022-10-08T21:41:30.412Z,9.42
2022-10-08T21:43:59.703Z,9.40
2022-10-08T21:46:33.166Z,9.37
2022-10-08T21:49:03.586Z,9.35
2022-10-08T21:51:31.043Z,9.35
2022-10-08T21:53:59.849Z,9.31
2022-10-08T21:56:29.690Z,9.32
2022-10-08T21:58:59.070Z,9.31
2022-10-08T22:01:32.142Z,9.31
2022-10-08T22:04:04.573Z,9.26
2022-10-08T22:06:37.245Z,9.24
2022-10-08T22:09:08.355Z,9.20
2022-10-08T22:11:35.178Z,9.18
2022-10-08T22:14:01.946Z,9.16
2022-10-08T22:16:29.772Z,9.16
2022-10-08T22:19:00.161Z,9.15
2022-10-08T22:21:29.462Z,9.13
2022-10-08T22:23:56.137Z,9.11
2022-10-08T22:26:28.092Z,9.11
2022-10-08T22:28:57.986Z,9.13
2022-10-08T22:31:31.751Z,9.12
2022-10-08T22:34:00.487Z,9.10
2022-10-08T22:36:34.003Z,9.07
2022-10-08T22:39:06.653Z,9.04
2022-10-08T22:41:33.810Z,8.99
2022-10-08T22:44:02.982Z,8.98
2022-10-08T22:46:34.228Z,8.93
2022-10-08T22:49:03.457Z,8.88
2022-10-08T22:51:41.419Z,8.85
2022-10-08T22:54:10.153Z,8.82
2022-10-08T22:56:39.815Z,8.76
2022-10-08T22:59:06.526Z,8.72
2022-10-08T23:01:45.932Z,8.66
2022-10-08T23:04:12.571Z,8.65
2022-10-08T23:06:41.441Z,8.63
2022-10-08T23:09:12.272Z,8.61
2022-10-08T23:11:38.960Z,8.59
2022-10-08T23:14:06.071Z,8.60
2022-10-08T23:16:38.338Z,8.56
2022-10-08T23:19:07.936Z,8.53
2022-10-08T23:21:44.676Z,8.50
2022-10-08T23:24:11.311Z,8.46
2022-10-08T23:26:49.819Z,8.41
2022-10-08T23:29:16.715Z,8.43
2022-10-08T23:31:54.837Z,8.38
2022-10-08T23:34:21.966Z,8.35
2022-10-08T23:36:57.979Z,8.32
2022-10-08T23:39:27.495Z,8.29
2022-10-08T23:42:01.296Z,8.27
2022-10-08T23:44:31.192Z,8.24
2022-10-08T23:47:07.561Z,8.23
2022-10-08T23:49:39.360Z,8.18
2022-10-08T23:52:06.007Z,8.18
2022-10-08T23:54:36.466Z,8.15
2022-10-08T23:57:13.516Z,8.14
2022-10-08T23:59:48.173Z,8.10
